createdAt,value
2022-12-05T00:01:35.379Z,47.30
2022-12-05T00:04:03.449Z,53.75
2022-12-05T00:06:30.685Z,47.47
2022-12-05T00:08:57.795Z,56.40
2022-12-05T00:11:25.885Z,53.75
2022-12-05T00:13:52.879Z,56.58
2022-12-05T00:16:20.806Z,57.42
2022-12-05T00:18:47.544Z,54.47
2022-12-05T00:21:17.829Z,53.00
2022-12-05T00:23:44.050Z,53.60
2022-12-05T00:26:10.715Z,47.03
2022-12-05T00:28:37.240Z,52.00
2022-12-05T00:31:04.268Z,57.95
2022-12-05T00:33:30.518Z,50.20
2022-12-05T00:36:01.191Z,52.50
2022-12-05T00:38:27.428Z,54.30
2022-12-05T00:40:53.647Z,51.75
2022-12-05T00:43:19.871Z,48.38
2022-12-05T00:45:46.124Z,51.53
2022-12-05T00:48:12.374Z,58.90
2022-12-05T00:50:38.606Z,49.10
2022-12-05T00:53:04.806Z,48.83
2022-12-05T00:55:31.062Z,51.58
2022-12-05T00:57:57.288Z,50.05
2022-12-05T01:00:23.594Z,52.28
2022-12-05T01:02:49.828Z,57.95
2022-12-05T01:05:16.144Z,49.35
2022-12-05T01:07:42.575Z,51.15
2022-12-05T01:10:08.983Z,50.13
2022-12-05T01:12:35.248Z,56.10
2022-12-05T01:15:01.519Z,53.60
2022-12-05T01:17:27.834Z,51.00
2022-12-05T01:19:54.255Z,54.10
2022-12-05T01:22:20.498Z,54.20
2022-12-05T01:24:46.749Z,44.08
2022-12-05T01:27:13.025Z,48.63
2022-12-05T01:29:39.313Z,57.10
2022-12-05T01:32:05.772Z,56.25
2022-12-05T01:34:32.053Z,51.80
2022-12-05T01:36:58.324Z,58.08
2022-12-05T01:39:24.582Z,51.58
2022-12-05T01:41:53.964Z,53.22
2022-12-05T01:44:23.262Z,45.65
2022-12-05T01:46:50.776Z,48.50
2022-12-05T01:49:22.368Z,49.53
2022-12-05T01:52:03.341Z,51.75
2022-12-05T01:54:30.457Z,53.58
2022-12-05T01:56:59.526Z,50.38
2022-12-05T01:59:26.796Z,51.22
2022-12-05T02:01:53.194Z,49.38
2022-12-05T02:04:19.448Z,51.97
2022-12-05T02:06:46.641Z,48.70
2022-12-05T02:09:12.890Z,48.85
2022-12-05T02:11:46.614Z,52.75
2022-12-05T02:14:23.204Z,47.03
2022-12-05T02:17:08.256Z,52.20
2022-12-05T02:19:49.848Z,47.90
2022-12-05T02:22:16.177Z,51.03
2022-12-05T02:24:45.384Z,56.90
2022-12-05T02:27:28.185Z,54.10
2022-12-05T02:30:00.484Z,47.40
2022-12-05T02:32:34.583Z,43.35
2022-12-05T02:35:08.007Z,52.10
2022-12-05T02:37:46.587Z,48.30
2022-12-05T02:40:15.276Z,68.80
2022-12-05T02:42:49.063Z,74.78
2022-12-05T02:45:17.504Z,64.18
2022-12-05T02:47:51.130Z,68.97
2022-12-05T02:50:20.756Z,53.35
2022-12-05T02:52:48.597Z,56.22
2022-12-05T02:55:15.524Z,52.38
2022-12-05T03:00:08.320Z,51.83
2022-12-05T03:02:34.897Z,52.78
2022-12-05T03:05:20.648Z,53.63
2022-12-05T03:07:48.168Z,62.95
2022-12-05T03:10:15.387Z,57.40
2022-12-05T03:12:44.551Z,77.93
2022-12-05T03:15:10.825Z,83.30
2022-12-05T03:17:41.480Z,79.25
2022-12-05T03:20:12.430Z,72.53
2022-12-05T03:22:43.205Z,73.07
2022-12-05T03:25:10.231Z,73.07
2022-12-05T03:27:39.523Z,94.75
2022-12-05T03:30:09.956Z,141.40
2022-12-05T03:32:45.706Z,102.85
2022-12-05T03:35:23.261Z,123.70
2022-12-05T03:37:54.811Z,159.82
2022-12-05T03:40:28.035Z,95.40
2022-12-05T03:43:03.206Z,108.10
2022-12-05T03:45:36.514Z,139.57
2022-12-05T03:48:18.220Z,92.65
2022-12-05T03:50:45.331Z,89.53
2022-12-05T03:53:20.134Z,75.05
2022-12-05T03:55:50.222Z,88.88
2022-12-05T03:58:26.136Z,94.28
2022-12-05T04:00:53.626Z,86.50
2022-12-05T04:03:23.185Z,66.70
2022-12-05T04:05:54.047Z,79.82
2022-12-05T04:08:23.740Z,73.85
2022-12-05T04:10:51.340Z,77.25
2022-12-05T04:13:20.323Z,94.20
2022-12-05T04:16:09.026Z,86.07
2022-12-05T04:18:38.733Z,89.13
2022-12-05T04:21:24.101Z,86.75
2022-12-05T04:24:10.620Z,93.28
2022-12-05T04:26:40.071Z,67.65
2022-12-05T04:29:10.554Z,102.95
2022-12-05T04:31:42.075Z,94.25
2022-12-05T04:34:11.603Z,83.38
2022-12-05T04:36:43.317Z,112.78
2022-12-05T04:39:17.778Z,94.00
2022-12-05T04:41:44.501Z,82.50
2022-12-05T04:44:12.432Z,86.18
2022-12-05T04:46:40.642Z,74.55
2022-12-05T04:49:08.068Z,72.63
2022-12-05T04:51:35.243Z,82.40
2022-12-05T04:54:04.816Z,72.10
2022-12-05T04:56:33.856Z,58.25
2022-12-05T04:59:00.108Z,60.25
2022-12-05T05:01:35.795Z,64.85
2022-12-05T05:04:11.268Z,68.97
2022-12-05T05:06:38.514Z,87.25
2022-12-05T05:09:04.846Z,71.68
2022-12-05T05:11:35.168Z,78.25
2022-12-05T05:14:01.885Z,78.05
2022-12-05T05:16:29.500Z,74.72
2022-12-05T05:18:55.767Z,76.82
2022-12-05T05:21:27.911Z,73.20
2022-12-05T05:23:54.475Z,80.43
2022-12-05T05:26:21.424Z,77.15
2022-12-05T05:28:48.508Z,83.35
2022-12-05T05:31:15.031Z,94.00
2022-12-05T05:33:41.656Z,75.00
2022-12-05T05:36:11.746Z,76.72
2022-12-05T05:38:39.316Z,78.05
2022-12-05T05:41:05.803Z,91.82
2022-12-05T05:43:32.207Z,77.07
2022-12-05T05:46:05.850Z,67.32
2022-12-05T05:48:32.127Z,70.85
2022-12-05T05:50:59.030Z,74.38
2022-12-05T05:55:51.418Z,61.97
2022-12-05T05:58:17.665Z,67.70
2022-12-05T06:00:44.086Z,65.75
2022-12-05T06:03:10.477Z,70.00
2022-12-05T06:05:36.775Z,74.03
2022-12-05T06:08:04.002Z,69.60
2022-12-05T06:10:30.395Z,61.50
2022-12-05T06:12:57.117Z,68.00
2022-12-05T06:15:23.662Z,66.63
2022-12-05T06:17:49.932Z,71.80
2022-12-05T06:20:16.202Z,73.35
2022-12-05T06:22:42.449Z,82.78
2022-12-05T06:25:08.819Z,80.05
2022-12-05T06:27:35.230Z,66.00
2022-12-05T06:30:01.609Z,78.72
2022-12-05T06:32:28.365Z,61.75
2022-12-05T06:34:54.585Z,63.60
2022-12-05T06:37:21.054Z,64.10
2022-12-05T06:39:47.283Z,61.10
2022-12-05T06:42:13.520Z,69.25
2022-12-05T06:44:40.454Z,66.80
2022-12-05T06:49:37.573Z,72.65
2022-12-05T06:52:04.432Z,55.40
2022-12-05T06:54:30.659Z,58.03
2022-12-05T06:56:56.999Z,58.38
2022-12-05T06:59:23.274Z,52.92
2022-12-05T07:01:50.324Z,58.42
2022-12-05T07:04:20.136Z,53.15
2022-12-05T07:06:50.572Z,54.63
2022-12-05T07:09:18.489Z,60.28
2022-12-05T07:11:51.001Z,63.08
2022-12-05T07:14:39.024Z,68.88
2022-12-05T07:17:04.311Z,54.50
2022-12-05T07:19:30.566Z,57.45
2022-12-05T07:21:56.790Z,61.05
2022-12-05T07:24:23.092Z,49.60
2022-12-05T07:26:49.347Z,52.80
2022-12-05T07:29:15.625Z,53.05
2022-12-05T07:31:41.926Z,51.25
2022-12-05T07:34:08.355Z,54.75
2022-12-05T07:36:34.665Z,58.75
2022-12-05T07:39:00.943Z,57.25
2022-12-05T07:41:28.688Z,88.97
2022-12-05T07:43:56.197Z,64.72
2022-12-05T07:46:22.886Z,66.25
2022-12-05T07:48:49.678Z,58.88
2022-12-05T07:51:16.294Z,67.15
2022-12-05T07:53:44.235Z,50.38
2022-12-05T07:56:11.963Z,51.53
2022-12-05T07:58:38.315Z,60.00
2022-12-05T08:01:07.493Z,50.20
2022-12-05T08:03:34.089Z,49.42
2022-12-05T08:06:04.422Z,47.70
2022-12-05T08:08:30.744Z,46.45
2022-12-05T08:10:57.150Z,52.88
2022-12-05T08:13:23.433Z,49.83
2022-12-05T08:15:49.946Z,50.22
2022-12-05T08:18:16.175Z,44.78
2022-12-05T08:20:42.391Z,51.90
2022-12-05T08:23:08.702Z,46.50
2022-12-05T08:25:34.987Z,46.20
2022-12-05T08:28:01.280Z,45.10
2022-12-05T08:30:27.605Z,45.17
2022-12-05T08:32:53.936Z,49.53
2022-12-05T08:35:20.188Z,47.65
2022-12-05T08:37:46.431Z,52.33
2022-12-05T08:40:12.854Z,51.25
2022-12-05T08:42:39.097Z,44.33
2022-12-05T08:45:05.591Z,51.88
2022-12-05T08:47:32.598Z,48.67
2022-12-05T08:49:59.414Z,47.63
2022-12-05T08:52:25.945Z,52.15
2022-12-05T08:54:52.243Z,49.47
2022-12-05T08:57:18.632Z,52.95
2022-12-05T08:59:44.944Z,41.92
2022-12-05T09:02:11.835Z,43.55
2022-12-05T09:07:04.296Z,71.90
2022-12-05T09:09:32.503Z,53.47
2022-12-05T09:12:00.135Z,44.95
2022-12-05T09:14:32.592Z,47.33
2022-12-05T09:16:59.728Z,46.80
2022-12-05T09:19:27.545Z,49.75
2022-12-05T09:21:54.574Z,42.38
2022-12-05T09:24:20.908Z,44.65
2022-12-05T09:26:47.118Z,44.00
2022-12-05T09:29:17.043Z,51.40
2022-12-05T09:31:44.415Z,50.00
2022-12-05T09:34:11.088Z,47.80
2022-12-05T09:36:37.451Z,55.15
2022-12-05T09:39:05.752Z,47.90
2022-12-05T09:42:02.802Z,42.60
2022-12-05T09:44:41.596Z,41.75
2022-12-05T09:47:26.244Z,48.30
2022-12-05T09:49:57.537Z,46.95
2022-12-05T09:52:26.919Z,41.25
2022-12-05T09:54:53.570Z,45.42
2022-12-05T09:57:27.746Z,40.47
2022-12-05T09:59:57.135Z,48.53
2022-12-05T10:02:32.425Z,43.20
2022-12-05T10:05:03.179Z,39.72
2022-12-05T10:07:35.965Z,41.45
2022-12-05T10:10:20.215Z,38.10
2022-12-05T10:13:05.733Z,38.50
2022-12-05T10:15:35.213Z,39.20
2022-12-05T10:18:20.150Z,40.28
2022-12-05T10:21:05.531Z,36.33
2022-12-05T10:23:57.621Z,35.95
2022-12-05T10:26:23.917Z,41.42
2022-12-05T10:28:52.825Z,38.95
2022-12-05T10:31:22.494Z,33.85
2022-12-05T10:33:51.589Z,45.35
2022-12-05T10:36:17.883Z,41.15
2022-12-05T10:38:44.780Z,45.72
2022-12-05T10:43:39.269Z,106.38
2022-12-05T10:46:07.846Z,127.15
2022-12-05T10:48:39.441Z,63.45
2022-12-05T10:51:06.471Z,49.13
2022-12-05T10:53:39.204Z,57.83
2022-12-05T10:56:30.532Z,59.90
2022-12-05T10:58:58.496Z,57.67
2022-12-05T11:01:26.894Z,44.75
2022-12-05T11:04:00.879Z,41.92
2022-12-05T11:06:28.628Z,39.88
2022-12-05T11:09:04.443Z,40.05
2022-12-05T11:11:33.321Z,41.70
2022-12-05T11:14:07.495Z,40.25
2022-12-05T11:16:35.640Z,38.88
2022-12-05T11:19:22.857Z,40.13
2022-12-05T11:21:49.713Z,43.30
2022-12-05T11:26:42.666Z,41.53
2022-12-05T11:29:28.808Z,43.20
2022-12-05T11:31:55.129Z,36.50
2022-12-05T11:34:23.041Z,37.55
2022-12-05T11:37:01.744Z,30.90
2022-12-05T11:39:27.971Z,36.30
2022-12-05T11:42:09.566Z,34.67
2022-12-05T11:44:44.825Z,33.70
2022-12-05T11:47:16.988Z,33.70
2022-12-05T11:50:00.900Z,35.08
2022-12-05T11:52:47.864Z,34.08
2022-12-05T11:55:21.757Z,35.85
2022-12-05T11:58:03.251Z,48.20
2022-12-05T12:00:32.982Z,41.30
2022-12-05T12:03:18.071Z,36.85
2022-12-05T12:05:44.368Z,46.95
2022-12-05T12:08:19.958Z,46.67
2022-12-05T12:10:54.107Z,33.83
2022-12-05T12:13:20.303Z,33.67
2022-12-05T12:15:52.139Z,37.33
2022-12-05T12:18:18.344Z,35.53
2022-12-05T12:20:50.687Z,30.60
2022-12-05T12:23:27.718Z,32.47
2022-12-05T12:26:12.705Z,33.50
2022-12-05T12:28:45.953Z,33.67
2022-12-05T12:31:12.231Z,35.17
2022-12-05T12:33:50.022Z,32.97
2022-12-05T12:36:24.882Z,40.15
2022-12-05T12:39:09.507Z,40.90
2022-12-05T12:41:46.236Z,32.20
2022-12-05T12:44:15.563Z,30.48
2022-12-05T12:46:46.227Z,35.10
2022-12-05T12:49:22.128Z,31.02
2022-12-05T12:51:53.210Z,52.70
2022-12-05T12:54:47.034Z,42.67
2022-12-05T12:57:22.102Z,38.60
2022-12-05T12:59:59.130Z,27.35
2022-12-05T13:02:39.482Z,23.27
2022-12-05T13:05:19.452Z,28.35
2022-12-05T13:07:51.009Z,25.88
2022-12-05T13:10:23.824Z,27.13
2022-12-05T13:12:50.500Z,27.55
2022-12-05T13:15:18.729Z,26.75
2022-12-05T13:17:47.610Z,24.98
2022-12-05T13:20:18.225Z,24.95
2022-12-05T13:22:45.158Z,31.13
2022-12-05T13:27:37.692Z,7.93
2022-12-05T13:30:08.084Z,9.73
2022-12-05T13:32:40.219Z,7.88
2022-12-05T13:35:06.419Z,8.63
2022-12-05T13:37:52.269Z,5.10
2022-12-05T13:40:42.617Z,6.22
2022-12-05T13:43:09.949Z,6.50
2022-12-05T13:45:36.266Z,5.75
2022-12-05T13:48:11.580Z,6.00
2022-12-05T13:50:51.587Z,6.55
2022-12-05T13:53:27.216Z,9.93
2022-12-05T13:55:56.269Z,9.43
2022-12-05T13:58:22.506Z,7.68
2022-12-05T14:00:52.764Z,6.80
2022-12-05T14:03:22.215Z,9.82
2022-12-05T14:05:53.097Z,7.20
2022-12-05T14:08:31.536Z,7.93
2022-12-05T14:10:57.742Z,6.18
2022-12-05T14:13:24.143Z,7.55
2022-12-05T14:15:51.196Z,7.10
2022-12-05T14:21:02.175Z,4.82
2022-12-05T14:23:28.391Z,7.55
2022-12-05T14:26:18.741Z,4.53
2022-12-05T14:28:47.963Z,4.38
2022-12-05T14:31:14.273Z,7.72
2022-12-05T14:33:40.705Z,6.45
2022-12-05T14:36:08.848Z,5.25
2022-12-05T14:38:39.253Z,7.15
2022-12-05T14:41:17.307Z,7.60
2022-12-05T14:43:43.843Z,11.45
2022-12-05T14:46:25.500Z,10.15
2022-12-05T14:48:52.145Z,8.80
2022-12-05T14:51:38.755Z,14.30
2022-12-05T14:54:10.424Z,7.50
2022-12-05T14:56:59.371Z,13.02
2022-12-05T14:59:28.891Z,16.08
2022-12-05T15:01:57.025Z,70.78
2022-12-05T15:04:38.447Z,93.07
2022-12-05T15:07:08.696Z,12.05
2022-12-05T15:09:53.505Z,33.10
2022-12-05T15:12:25.082Z,16.30
2022-12-05T15:14:54.226Z,21.58
2022-12-05T15:17:23.107Z,15.45
2022-12-05T15:19:52.310Z,16.63
2022-12-05T15:22:21.227Z,10.18
2022-12-05T15:24:47.455Z,8.75
2022-12-05T15:27:14.222Z,12.55
2022-12-05T15:29:41.066Z,16.70
2022-12-05T15:34:36.566Z,8.10
2022-12-05T15:37:21.886Z,6.22
2022-12-05T15:39:56.939Z,6.55
2022-12-05T15:42:30.220Z,7.15
2022-12-05T15:45:12.905Z,4.68
2022-12-05T15:47:40.109Z,8.75
2022-12-05T15:50:06.864Z,5.60
2022-12-05T15:52:33.124Z,3.83
2022-12-05T15:55:00.814Z,5.05
2022-12-05T15:57:37.722Z,7.28
2022-12-05T16:00:06.993Z,13.20
2022-12-05T16:02:42.116Z,5.40
2022-12-05T16:05:22.026Z,10.60
2022-12-05T16:07:49.600Z,33.53
2022-12-05T16:10:16.643Z,23.55
2022-12-05T16:12:43.092Z,12.05
2022-12-05T16:15:39.195Z,6.88
2022-12-05T16:18:06.066Z,4.85
2022-12-05T16:23:00.514Z,10.85
2022-12-05T16:25:28.262Z,9.85
2022-12-05T16:28:15.660Z,6.25
2022-12-05T16:30:52.394Z,7.55
2022-12-05T16:33:18.654Z,16.52
2022-12-05T16:35:45.768Z,9.27
2022-12-05T16:38:19.475Z,11.60
2022-12-05T16:40:45.703Z,11.75
2022-12-05T16:43:24.308Z,16.17
2022-12-05T16:45:51.337Z,13.77
2022-12-05T16:48:20.842Z,17.70
2022-12-05T16:50:47.384Z,20.02
2022-12-05T16:53:28.484Z,26.10
2022-12-05T16:55:55.341Z,17.50
2022-12-05T17:00:48.357Z,9.98
2022-12-05T17:03:33.563Z,4.68
2022-12-05T17:06:00.955Z,5.43
2022-12-05T17:08:27.313Z,5.13
2022-12-05T17:10:53.680Z,8.82
2022-12-05T17:13:20.174Z,10.43
2022-12-05T17:15:46.443Z,5.90
2022-12-05T17:18:13.708Z,4.15
2022-12-05T17:20:41.446Z,3.20
2022-12-05T17:23:10.981Z,2.50
2022-12-05T17:25:38.388Z,2.30
2022-12-05T17:28:04.688Z,3.63
2022-12-05T17:30:30.936Z,2.58
2022-12-05T17:32:57.340Z,4.93
2022-12-05T17:35:23.823Z,5.13
2022-12-05T17:37:50.054Z,7.32
2022-12-05T17:40:16.539Z,8.48
2022-12-05T17:42:43.180Z,8.27
2022-12-05T17:45:11.878Z,6.80
2022-12-05T17:47:38.194Z,2.15
2022-12-05T17:50:05.098Z,1.58
2022-12-05T17:54:57.939Z,1.73
2022-12-05T17:57:24.619Z,2.08
2022-12-05T17:59:50.875Z,1.65
2022-12-05T18:02:20.179Z,5.90
2022-12-05T18:04:46.584Z,3.72
2022-12-05T18:07:12.852Z,2.58
2022-12-05T18:09:39.075Z,2.88
2022-12-05T18:12:05.421Z,3.22
2022-12-05T18:14:35.872Z,4.07
2022-12-05T18:17:03.127Z,2.30
2022-12-05T18:19:29.417Z,6.50
2022-12-05T18:21:55.676Z,16.88
2022-12-05T18:24:21.939Z,21.88
2022-12-05T18:26:48.241Z,39.17
2022-12-05T18:29:14.647Z,24.02
2022-12-05T18:31:42.676Z,7.18
2022-12-05T18:34:08.990Z,3.60
2022-12-05T18:36:35.219Z,2.92
2022-12-05T18:39:01.572Z,9.15
2022-12-05T18:41:27.920Z,46.35
2022-12-05T18:43:54.211Z,13.18
2022-12-05T18:46:20.497Z,11.70
2022-12-05T18:48:48.004Z,7.13
2022-12-05T18:51:22.056Z,6.03
2022-12-05T18:53:52.499Z,5.63
2022-12-05T18:56:22.828Z,5.68
2022-12-05T18:58:57.934Z,9.27
2022-12-05T19:01:25.405Z,10.43
2022-12-05T19:03:51.827Z,18.25
2022-12-05T19:06:19.808Z,27.23
2022-12-05T19:08:46.183Z,20.52
2022-12-05T19:11:13.544Z,11.32
2022-12-05T19:13:40.282Z,8.90
2022-12-05T19:16:07.724Z,10.70
2022-12-05T19:18:34.165Z,11.43
2022-12-05T19:21:00.415Z,13.75
2022-12-05T19:23:26.945Z,6.78
2022-12-05T19:25:59.447Z,7.53
2022-12-05T19:28:25.668Z,7.47
2022-12-05T19:30:58.842Z,5.97
2022-12-05T19:33:25.067Z,5.82
2022-12-05T19:35:51.332Z,5.25
2022-12-05T19:38:17.564Z,6.50
2022-12-05T19:40:44.697Z,4.65
2022-12-05T19:43:10.916Z,12.95
2022-12-05T19:45:38.078Z,9.32
2022-12-05T19:48:05.007Z,9.02
2022-12-05T19:52:57.441Z,8.57
2022-12-05T19:55:23.692Z,6.30
2022-12-05T19:57:49.918Z,6.55
2022-12-05T20:00:19.707Z,5.43
2022-12-05T20:02:46.271Z,7.03
2022-12-05T20:05:13.207Z,5.43
2022-12-05T20:07:39.586Z,4.65
2022-12-05T20:10:06.173Z,4.93
2022-12-05T20:12:32.390Z,8.13
2022-12-05T20:14:58.675Z,10.30
2022-12-05T20:17:24.895Z,19.17
2022-12-05T20:19:51.126Z,13.90
2022-12-05T20:22:17.346Z,19.30
2022-12-05T20:24:43.575Z,9.55
2022-12-05T20:27:09.805Z,21.13
2022-12-05T20:29:38.842Z,8.02
2022-12-05T20:32:05.116Z,9.27
2022-12-05T20:34:31.452Z,6.78
2022-12-05T20:36:57.696Z,9.35
2022-12-05T20:39:24.707Z,9.65
2022-12-05T20:44:17.566Z,23.60
2022-12-05T20:46:43.843Z,20.15
2022-12-05T20:49:11.747Z,13.90
2022-12-05T20:51:40.292Z,14.45
2022-12-05T20:54:07.417Z,8.98
2022-12-05T20:56:34.208Z,10.57
2022-12-05T20:59:01.651Z,8.85
2022-12-05T21:01:29.121Z,7.40
2022-12-05T21:03:56.200Z,15.32
2022-12-05T21:06:23.478Z,10.27
2022-12-05T21:08:50.008Z,7.28
2022-12-05T21:11:16.496Z,25.17
2022-12-05T21:13:43.010Z,51.60
2022-12-05T21:16:11.151Z,44.53
2022-12-05T21:18:37.960Z,38.63
2022-12-05T21:21:05.464Z,39.15
2022-12-05T21:23:31.919Z,21.48
2022-12-05T21:26:05.497Z,25.00
2022-12-05T21:28:32.417Z,17.02
2022-12-05T21:33:28.786Z,12.20
2022-12-05T21:35:55.328Z,11.63
2022-12-05T21:38:21.565Z,13.23
2022-12-05T21:40:47.806Z,13.80
2022-12-05T21:43:14.036Z,10.07
2022-12-05T21:45:48.987Z,11.43
2022-12-05T21:48:17.932Z,13.70
2022-12-05T21:50:44.154Z,18.30
2022-12-05T21:53:10.386Z,19.02
2022-12-05T21:55:36.629Z,20.02
2022-12-05T21:58:02.896Z,30.15
2022-12-05T22:00:29.229Z,30.60
2022-12-05T22:02:55.547Z,11.57
2022-12-05T22:05:21.815Z,7.22
2022-12-05T22:07:48.099Z,5.45
2022-12-05T22:10:14.385Z,5.57
2022-12-05T22:12:40.855Z,4.05
2022-12-05T22:15:07.445Z,6.10
2022-12-05T22:17:33.672Z,5.65
2022-12-05T22:20:00.064Z,4.95
2022-12-05T22:22:26.514Z,9.43
2022-12-05T22:24:52.751Z,7.05
2022-12-05T22:27:18.996Z,7.47
2022-12-05T22:29:49.807Z,8.35
2022-12-05T22:32:18.780Z,9.95
2022-12-05T22:34:45.040Z,10.15
2022-12-05T22:37:11.264Z,8.70
2022-12-05T22:39:37.497Z,9.95
2022-12-05T22:42:03.724Z,7.82
2022-12-05T22:44:29.987Z,6.70
2022-12-05T22:46:56.300Z,5.75
2022-12-05T22:49:25.200Z,8.52
2022-12-05T22:51:51.505Z,9.52
2022-12-05T22:54:17.754Z,13.50
2022-12-05T22:56:44.018Z,8.43
2022-12-05T22:59:14.512Z,12.55
2022-12-05T23:01:41.154Z,10.52
2022-12-05T23:04:09.817Z,19.27
2022-12-05T23:06:36.669Z,13.45
2022-12-05T23:09:03.930Z,11.32
2022-12-05T23:11:30.862Z,10.88
2022-12-05T23:16:29.292Z,8.70
2022-12-05T23:18:56.693Z,9.63
2022-12-05T23:21:27.273Z,7.43
2022-12-05T23:23:54.880Z,9.10
2022-12-05T23:26:22.106Z,7.57
2022-12-05T23:28:48.400Z,6.95
2022-12-05T23:31:15.123Z,5.53
2022-12-05T23:33:41.429Z,7.22
2022-12-05T23:36:08.383Z,9.65
2022-12-05T23:38:35.375Z,8.48
2022-12-05T23:41:03.141Z,8.50
2022-12-05T23:43:30.131Z,9.90
2022-12-05T23:45:56.759Z,11.52
2022-12-05T23:48:23.011Z,11.07
2022-12-05T23:51:06.390Z,12.30
2022-12-05T23:53:33.669Z,10.38
2022-12-05T23:56:04.116Z,11.07
2022-12-05T23:58:30.838Z,8.95
